Airfield :
LOGIN :

Register | Disclaimer

   EN    FR    IT 

 










Legend :    VFR   Marginal VFR   IFR   Intensive IFR   Very Intensive IFR
Visi :
Ceiling :
>= 8 km
>= 3000ft
5 to 8 km
1000 to 3000 ft
1500m to 5 km
500 to 1000 ft
800 to 1500m
200 to 500 ft
< 800m
< 200 ft
Symbols :   Thunderstorms  Fog  Heavy snow  Heavy precipitations  Wind > 20 kt
SIGMETs :     Misc.  Thunderstorms  Icing  Turbulence  Mountain Waves  Volcanic Ashes






- Airport Elevation : 32 ft
- IATA code : LKZ


EGUL - RAF Lakenheath

CURRENT METAR :
  • 220156Z AUTO 36008KT 9999 SCT100 11/M02 A3007 RMK AO2 SLP186 T01131025 $

EXPIRED METARs :
  • 220056Z AUTO 36008KT 9999 SCT100 11/M03 A3006 RMK AO2 SLP183 T01141028 $
  • 212356Z AUTO 01007KT 9999 CLR 12/M02 A3007 RMK AO2 SLP186 60000 T01151016 10139 20115 401560088 53007 $

TAF AMD TAF EGUL
Valid from the 21 at 13:00 until the 22 at 16:00 UTC


211300Z 2113/2216 03010G15KT 9999 SCT025 BKN080 QNH2990INS
TEMPO 2114/2120 02012G22KT
BECMG 2120/2121 03012G18KT 9000 BR BKN018 OVC080 QNH2998INS
BECMG 2121/2122 02010G15KT 9000 BR BKN030 OVC080 QNH3001INS
BECMG 2203/2204 02010G15KT 9999 NSW SCT030 BKN050 QNH3005INS
BECMG 2205/2206 02010G15KT 9999 SCT025 BKN100 QNH3008INS
BECMG 2209/2210 03010G15KT 9999 SCT025 BKN050 QNH3012INS TX15/2116Z TN11/2205Z NO AMDS AFT 2113 NEXT 2205



MET'MAP, your aeronautical weather chart ! - Copyright ORBIFLY December 2007 - Disclaimer

ORBIFLY MET'MAP TEAM :

Programming & Development : Alexandra Zaïnal
Concept & original design : Baudouin d'Aumeries
Assistance for programming : Marc-Olivier Méhu
Technical & hardware support : Manuel Goepfert

Contact : metmap@orbifly.com




SOURCES & CREDITS :

   NOAA